Terminal Aerodrome Forecast
Issued by NWS Twin Cities, MN

Home | Current Version | Previous Version | Text Only | Print | Product List | Glossary Off
Versions: 1 2 3 4 5 6 7 8 9 10 11 12 13 14 15 16 17 18 19 20

000
FTUS43 KMPX 170303 AAA
TAFEAU
TAF AMD
KEAU 170303Z 1703/1724 06004KT 4SM -FZRA BR SCT008 BKN035
      TEMPO 1703/1706 2SM -FZRASN BR OVC008
     FM170600 04003KT 1SM -SN BR OVC005
     FM170900 02003KT 2SM BR OVC005
     FM171500 31005KT 5SM BR BKN012
     FM171800 30005KT P6SM BKN040=

USA.gov is the U.S. government's official web portal to all federal, state and local government web resources and services.